createdAt,value
2023-02-11T00:00:43.618Z,6.50
2023-02-11T00:03:10.542Z,6.60
2023-02-11T00:05:37.785Z,6.60
2023-02-11T00:08:05.200Z,6.60
2023-02-11T00:10:32.054Z,6.60
2023-02-11T00:12:59.171Z,6.60
2023-02-11T00:15:26.033Z,6.60
2023-02-11T00:17:52.891Z,6.60
2023-02-11T00:20:19.748Z,6.60
2023-02-11T00:22:46.618Z,6.60
2023-02-11T00:25:13.524Z,6.60
2023-02-11T00:27:40.317Z,6.60
2023-02-11T00:30:07.719Z,6.50
2023-02-11T00:32:34.646Z,6.60
2023-02-11T00:35:01.549Z,6.60
2023-02-11T00:37:28.889Z,6.60
2023-02-11T00:39:55.716Z,6.60
2023-02-11T00:42:22.579Z,6.60
2023-02-11T00:44:49.446Z,6.60
2023-02-11T00:47:16.319Z,6.60
2023-02-11T00:49:43.209Z,6.60
2023-02-11T00:52:10.019Z,6.60
2023-02-11T00:54:36.836Z,6.60
2023-02-11T00:57:03.866Z,6.60
2023-02-11T00:59:30.705Z,6.60
2023-02-11T01:01:57.590Z,6.60
2023-02-11T01:04:24.556Z,6.60
2023-02-11T01:06:51.361Z,6.60
2023-02-11T01:09:18.297Z,6.60
2023-02-11T01:11:45.253Z,6.60
2023-02-11T01:14:12.084Z,6.60
2023-02-11T01:16:40.422Z,6.60
2023-02-11T01:19:07.286Z,6.70
2023-02-11T01:21:34.183Z,6.70
2023-02-11T01:24:01.119Z,6.70
2023-02-11T01:26:28.017Z,6.70
2023-02-11T01:28:55.150Z,6.70
2023-02-11T01:31:22.016Z,6.70
2023-02-11T01:33:49.242Z,6.70
2023-02-11T01:36:16.076Z,6.80
2023-02-11T01:38:44.500Z,6.70
2023-02-11T01:41:14.634Z,6.70
2023-02-11T01:43:45.734Z,6.70
2023-02-11T01:46:33.562Z,6.70
2023-02-11T01:49:17.480Z,6.70
2023-02-11T01:51:51.574Z,6.60
2023-02-11T01:54:41.293Z,6.60
2023-02-11T01:57:23.117Z,6.60
2023-02-11T01:59:52.795Z,6.60
2023-02-11T02:02:25.707Z,6.60
2023-02-11T02:05:18.370Z,6.50
2023-02-11T02:08:09.730Z,6.60
2023-02-11T02:10:40.655Z,6.50
2023-02-11T02:13:07.450Z,6.60
2023-02-11T02:15:37.243Z,6.60
2023-02-11T02:18:36.222Z,6.60
2023-02-11T02:21:21.251Z,6.60
2023-02-11T02:24:11.995Z,6.60
2023-02-11T02:27:04.985Z,6.60
2023-02-11T02:29:50.581Z,6.50
2023-02-11T02:32:30.980Z,6.60
2023-02-11T02:35:09.857Z,6.60
2023-02-11T02:37:57.610Z,6.60
2023-02-11T02:40:30.955Z,6.60
2023-02-11T02:43:00.908Z,6.60
2023-02-11T02:45:27.931Z,6.60
2023-02-11T02:47:55.650Z,6.60
2023-02-11T02:50:30.407Z,6.50
2023-02-11T02:53:28.698Z,6.60
2023-02-11T02:56:25.321Z,6.60
2023-02-11T02:59:12.974Z,6.60
2023-02-11T03:01:58.676Z,6.60
2023-02-11T03:04:37.796Z,6.60
2023-02-11T03:07:19.736Z,6.60
2023-02-11T03:10:02.319Z,6.60
2023-02-11T03:12:32.592Z,6.60
2023-02-11T03:15:01.540Z,6.70
2023-02-11T03:17:30.261Z,6.70
2023-02-11T03:19:58.989Z,6.70
2023-02-11T03:22:33.515Z,6.70
2023-02-11T03:25:02.100Z,6.70
2023-02-11T03:27:40.932Z,6.70
2023-02-11T03:30:13.536Z,6.70
2023-02-11T03:32:54.215Z,6.70
2023-02-11T03:35:39.559Z,6.70
2023-02-11T03:38:17.715Z,6.70
2023-02-11T03:40:45.717Z,6.70
2023-02-11T03:43:25.120Z,6.70
2023-02-11T03:45:54.392Z,6.70
2023-02-11T03:48:37.904Z,6.70
2023-02-11T03:51:09.470Z,6.70
2023-02-11T03:53:38.827Z,6.70
2023-02-11T03:56:08.862Z,6.70
2023-02-11T03:58:35.807Z,6.70
2023-02-11T04:01:02.803Z,6.70
2023-02-11T04:03:29.869Z,6.70
2023-02-11T04:05:56.918Z,6.70
2023-02-11T04:08:23.720Z,6.70
2023-02-11T04:10:50.565Z,6.70
2023-02-11T04:13:17.427Z,6.70
2023-02-11T04:15:44.864Z,6.70
2023-02-11T04:18:11.962Z,6.70
2023-02-11T04:20:38.797Z,6.70
2023-02-11T04:23:05.816Z,6.70
2023-02-11T04:25:32.702Z,6.80
2023-02-11T04:27:59.632Z,6.80
2023-02-11T04:30:26.488Z,6.70
2023-02-11T04:32:54.454Z,6.70
2023-02-11T04:35:21.560Z,6.70
2023-02-11T04:37:48.406Z,6.70
2023-02-11T04:40:15.231Z,6.80
2023-02-11T04:42:42.088Z,6.80
2023-02-11T04:45:09.253Z,6.80
2023-02-11T04:47:37.710Z,6.80
2023-02-11T04:50:05.675Z,6.80
2023-02-11T04:52:32.566Z,6.90
2023-02-11T04:54:59.574Z,6.90
2023-02-11T04:57:26.407Z,6.90
2023-02-11T04:59:53.306Z,6.90
2023-02-11T05:02:20.225Z,6.90
2023-02-11T05:04:47.198Z,6.80
2023-02-11T05:07:14.003Z,6.80
2023-02-11T05:09:40.877Z,6.80
2023-02-11T05:12:07.811Z,6.90
2023-02-11T05:14:35.028Z,6.80
2023-02-11T05:17:02.005Z,6.90
2023-02-11T05:19:29.033Z,6.90
2023-02-11T05:22:02.591Z,6.90
2023-02-11T05:24:32.387Z,6.90
2023-02-11T05:26:59.783Z,6.90
2023-02-11T05:29:26.692Z,6.90
2023-02-11T05:31:53.942Z,6.90
2023-02-11T05:34:20.702Z,6.90
2023-02-11T05:36:47.512Z,6.90
2023-02-11T05:39:14.355Z,6.90
2023-02-11T05:41:41.223Z,6.90
2023-02-11T05:44:08.236Z,7.00
2023-02-11T05:46:35.124Z,6.90
2023-02-11T05:49:01.974Z,6.90
2023-02-11T05:51:28.834Z,6.90
2023-02-11T05:53:55.803Z,6.90
2023-02-11T05:56:22.657Z,6.90
2023-02-11T05:58:49.471Z,6.90
2023-02-11T06:01:16.338Z,6.90
2023-02-11T06:03:43.349Z,6.90
2023-02-11T06:06:13.389Z,6.90
2023-02-11T06:08:40.404Z,6.90
2023-02-11T06:11:07.340Z,6.90
2023-02-11T06:13:34.323Z,6.90
2023-02-11T06:16:02.780Z,6.90
2023-02-11T06:18:29.765Z,6.80
2023-02-11T06:20:56.672Z,6.90
2023-02-11T06:23:23.527Z,6.90
2023-02-11T06:25:50.987Z,6.90
2023-02-11T06:28:18.194Z,6.90
2023-02-11T06:30:45.230Z,6.80
2023-02-11T06:33:12.117Z,6.90
2023-02-11T06:35:39.661Z,6.90
2023-02-11T06:38:06.519Z,6.90
2023-02-11T06:40:33.426Z,6.90
2023-02-11T06:43:00.273Z,6.80
2023-02-11T06:45:27.191Z,6.90
2023-02-11T06:47:54.128Z,6.90
2023-02-11T06:50:21.009Z,6.90
2023-02-11T06:52:47.898Z,6.90
2023-02-11T06:55:14.983Z,6.90
2023-02-11T06:57:41.866Z,6.90
2023-02-11T07:00:10.072Z,6.90
2023-02-11T07:02:37.068Z,6.90
2023-02-11T07:05:06.233Z,6.90
2023-02-11T07:07:34.347Z,6.90
2023-02-11T07:10:03.107Z,6.90
2023-02-11T07:12:30.772Z,7.00
2023-02-11T07:14:58.147Z,7.00
2023-02-11T07:17:24.998Z,7.00
2023-02-11T07:19:52.112Z,7.00
2023-02-11T07:22:19.016Z,7.00
2023-02-11T07:24:45.917Z,7.00
2023-02-11T07:27:13.041Z,7.10
2023-02-11T07:29:41.550Z,7.10
2023-02-11T07:32:08.528Z,7.10
2023-02-11T07:34:35.466Z,7.10
2023-02-11T07:37:02.840Z,7.10
2023-02-11T07:39:29.907Z,7.10
2023-02-11T07:41:57.077Z,7.10
2023-02-11T07:44:24.078Z,7.10
2023-02-11T07:46:51.087Z,7.10
2023-02-11T07:49:17.930Z,7.20
2023-02-11T07:51:45.847Z,7.10
2023-02-11T07:54:12.697Z,7.20
2023-02-11T07:56:39.756Z,7.10
2023-02-11T07:59:07.794Z,7.20
2023-02-11T08:01:34.990Z,7.20
2023-02-11T08:04:03.581Z,7.20
2023-02-11T08:06:33.246Z,7.20
2023-02-11T08:09:08.960Z,7.20
2023-02-11T08:11:36.101Z,7.30
2023-02-11T08:14:03.141Z,7.20
2023-02-11T08:16:32.770Z,7.20
2023-02-11T08:19:02.054Z,7.30
2023-02-11T08:21:29.089Z,7.30
2023-02-11T08:23:56.717Z,7.30
2023-02-11T08:26:26.118Z,7.30
2023-02-11T08:28:54.771Z,7.30
2023-02-11T08:31:25.005Z,7.30
2023-02-11T08:33:53.314Z,7.30
2023-02-11T08:36:25.605Z,7.40
2023-02-11T08:39:16.113Z,7.40
2023-02-11T08:41:45.963Z,7.40
2023-02-11T08:44:13.452Z,7.40
2023-02-11T08:46:40.524Z,7.40
2023-02-11T08:49:07.450Z,7.40
2023-02-11T08:51:34.394Z,7.50
2023-02-11T08:54:01.524Z,7.50
2023-02-11T08:56:30.850Z,7.50
2023-02-11T08:58:58.014Z,7.50
2023-02-11T09:01:28.273Z,7.60
2023-02-11T09:03:56.074Z,7.60
2023-02-11T09:06:24.497Z,7.60
2023-02-11T09:08:53.892Z,7.60
2023-02-11T09:11:25.288Z,7.60
2023-02-11T09:13:54.406Z,7.70
2023-02-11T09:16:28.041Z,7.70
2023-02-11T09:18:57.470Z,7.70
2023-02-11T09:21:25.094Z,7.80
2023-02-11T09:23:52.484Z,7.80
2023-02-11T09:26:23.239Z,7.80
2023-02-11T09:28:51.281Z,7.80
2023-02-11T09:31:21.556Z,7.80
2023-02-11T09:33:51.901Z,7.80
2023-02-11T09:36:28.679Z,7.90
2023-02-11T09:38:57.694Z,7.90
2023-02-11T09:41:24.525Z,8.00
2023-02-11T09:43:54.653Z,8.00
2023-02-11T09:46:22.749Z,8.10
2023-02-11T09:48:51.982Z,8.10
2023-02-11T09:51:48.330Z,8.10
2023-02-11T09:54:37.438Z,8.20
2023-02-11T09:57:06.312Z,8.20
2023-02-11T09:59:33.155Z,8.30
2023-02-11T10:02:14.315Z,8.40
2023-02-11T10:05:15.173Z,8.40
2023-02-11T10:08:20.007Z,8.40
2023-02-11T10:10:57.696Z,8.40
2023-02-11T10:13:55.028Z,8.40
2023-02-11T10:16:30.623Z,8.40
2023-02-11T10:19:27.972Z,8.50
2023-02-11T10:22:14.765Z,8.50
2023-02-11T10:24:48.557Z,8.50
2023-02-11T10:27:19.836Z,8.50
2023-02-11T10:29:52.552Z,8.60
2023-02-11T10:32:49.507Z,8.60
2023-02-11T10:35:21.372Z,8.70
2023-02-11T10:37:49.314Z,8.70
2023-02-11T10:40:25.704Z,8.70
2023-02-11T10:43:04.809Z,8.80
2023-02-11T10:45:39.960Z,8.80
2023-02-11T10:48:35.739Z,8.80
2023-02-11T10:51:23.263Z,8.90
2023-02-11T10:54:03.576Z,8.90
2023-02-11T10:56:35.721Z,9.00
2023-02-11T10:59:38.380Z,9.00
2023-02-11T11:02:34.721Z,9.00
2023-02-11T11:05:26.980Z,9.10
2023-02-11T11:07:56.848Z,9.20
2023-02-11T11:11:03.677Z,9.20
2023-02-11T11:13:43.447Z,9.30
2023-02-11T11:16:17.772Z,9.40
2023-02-11T11:18:47.088Z,9.50
2023-02-11T11:21:27.760Z,9.50
2023-02-11T11:24:00.316Z,9.50
2023-02-11T11:26:49.553Z,9.60
2023-02-11T11:29:38.593Z,9.60
2023-02-11T11:32:12.701Z,9.70
2023-02-11T11:34:48.740Z,9.90
2023-02-11T11:37:31.197Z,10.00
2023-02-11T11:40:13.265Z,10.10
2023-02-11T11:42:40.250Z,10.10
2023-02-11T11:45:16.194Z,10.00
2023-02-11T11:47:52.002Z,9.90
2023-02-11T11:50:42.828Z,9.80
2023-02-11T11:53:19.539Z,9.80
2023-02-11T11:55:54.700Z,9.70
2023-02-11T11:58:23.166Z,9.70
2023-02-11T12:00:54.076Z,9.80
2023-02-11T12:03:39.188Z,9.80
2023-02-11T12:06:15.237Z,9.70
2023-02-11T12:08:54.901Z,9.70
2023-02-11T12:11:32.600Z,9.70
2023-02-11T12:14:41.319Z,9.60
2023-02-11T12:17:26.970Z,9.50
2023-02-11T12:20:17.984Z,9.50
2023-02-11T12:22:53.678Z,9.50
2023-02-11T12:25:35.989Z,9.60
2023-02-11T12:28:26.213Z,9.70
2023-02-11T12:31:13.186Z,9.60
2023-02-11T12:33:40.097Z,9.60
2023-02-11T12:36:07.032Z,9.60
2023-02-11T12:38:53.552Z,9.60
2023-02-11T12:42:09.383Z,9.70
2023-02-11T12:44:55.970Z,9.80
2023-02-11T12:47:35.375Z,9.90
2023-02-11T12:50:23.018Z,10.00
2023-02-11T12:53:02.113Z,10.10
2023-02-11T12:55:37.141Z,10.10
2023-02-11T12:58:06.429Z,10.10
2023-02-11T13:00:45.584Z,10.10
2023-02-11T13:03:18.497Z,10.10
2023-02-11T13:05:57.198Z,10.00
2023-02-11T13:08:28.426Z,10.00
2023-02-11T13:11:02.519Z,10.00
2023-02-11T13:13:41.919Z,9.90
2023-02-11T13:16:39.999Z,9.90
2023-02-11T13:19:13.149Z,9.90
2023-02-11T13:21:42.909Z,10.00
2023-02-11T13:24:34.364Z,10.00
2023-02-11T13:27:04.244Z,10.00
2023-02-11T13:29:58.344Z,10.00
2023-02-11T13:32:25.219Z,10.00
2023-02-11T13:34:52.048Z,10.00
2023-02-11T13:37:18.849Z,10.00
2023-02-11T13:40:26.102Z,9.90
2023-02-11T13:43:03.440Z,10.00
2023-02-11T13:45:51.522Z,9.90
2023-02-11T13:48:32.905Z,10.00
2023-02-11T13:51:07.125Z,10.00
2023-02-11T13:54:00.634Z,10.00
2023-02-11T13:56:33.978Z,10.00
2023-02-11T13:59:04.069Z,10.00
2023-02-11T14:02:07.911Z,10.00
2023-02-11T14:04:53.290Z,10.00
2023-02-11T14:07:47.569Z,10.10
2023-02-11T14:10:42.328Z,10.20
2023-02-11T14:13:25.682Z,10.20
2023-02-11T14:16:17.127Z,10.20
2023-02-11T14:18:47.217Z,10.20
2023-02-11T14:21:18.888Z,10.10
2023-02-11T14:23:46.740Z,10.10
2023-02-11T14:26:39.890Z,10.10
2023-02-11T14:29:41.952Z,10.10
2023-02-11T14:32:30.564Z,10.10
2023-02-11T14:35:34.028Z,10.20
2023-02-11T14:38:24.429Z,10.20
2023-02-11T14:41:00.207Z,10.20
2023-02-11T14:43:41.384Z,10.10
2023-02-11T14:46:09.817Z,10.10
2023-02-11T14:48:39.202Z,10.00
2023-02-11T14:51:13.475Z,10.00
2023-02-11T14:53:46.763Z,10.10
2023-02-11T14:56:26.499Z,10.10
2023-02-11T14:58:54.990Z,10.10
2023-02-11T15:01:32.755Z,10.10
2023-02-11T15:04:02.751Z,10.00
2023-02-11T15:06:32.717Z,10.00
2023-02-11T15:09:26.447Z,9.90
2023-02-11T15:11:54.243Z,9.90
2023-02-11T15:14:33.129Z,9.80
2023-02-11T15:17:03.379Z,9.70
2023-02-11T15:19:35.754Z,9.70
2023-02-11T15:22:07.075Z,9.60
2023-02-11T15:24:35.599Z,9.60
2023-02-11T15:27:04.678Z,9.50
2023-02-11T15:29:40.436Z,9.50
2023-02-11T15:32:31.019Z,9.50
2023-02-11T15:34:58.769Z,9.50
2023-02-11T15:37:29.898Z,9.50
2023-02-11T15:40:09.942Z,9.50
2023-02-11T15:42:51.872Z,9.50
2023-02-11T15:45:29.093Z,9.40
2023-02-11T15:48:16.010Z,9.40
2023-02-11T15:50:48.789Z,9.40
2023-02-11T15:53:33.988Z,9.30
2023-02-11T15:56:16.115Z,9.30
2023-02-11T15:58:47.538Z,9.30
2023-02-11T16:01:14.575Z,9.20
2023-02-11T16:03:43.086Z,9.20
2023-02-11T16:06:17.517Z,9.20
2023-02-11T16:09:08.753Z,9.10
2023-02-11T16:11:54.478Z,9.10
2023-02-11T16:14:27.556Z,9.10
2023-02-11T16:16:58.952Z,9.00
2023-02-11T16:19:27.750Z,9.00
2023-02-11T16:21:56.788Z,9.00
2023-02-11T16:24:35.020Z,8.90
2023-02-11T16:27:04.469Z,8.90
2023-02-11T16:29:32.610Z,8.90
2023-02-11T16:32:16.339Z,8.90
2023-02-11T16:34:43.398Z,8.90
2023-02-11T16:37:10.474Z,8.80
2023-02-11T16:39:37.499Z,8.80
2023-02-11T16:42:07.722Z,8.80
2023-02-11T16:44:35.304Z,8.80
2023-02-11T16:47:03.381Z,8.70
2023-02-11T16:49:34.357Z,8.70
2023-02-11T16:52:05.452Z,8.70
2023-02-11T16:54:32.576Z,8.70
2023-02-11T16:56:59.569Z,8.70
2023-02-11T16:59:26.451Z,8.60
2023-02-11T17:01:54.842Z,8.60
2023-02-11T17:04:26.273Z,8.60
2023-02-11T17:06:53.159Z,8.50
2023-02-11T17:09:30.806Z,8.50
2023-02-11T17:11:58.104Z,8.50
2023-02-11T17:14:24.938Z,8.50
2023-02-11T17:16:51.903Z,8.40
2023-02-11T17:19:21.065Z,8.40
2023-02-11T17:21:50.631Z,8.40
2023-02-11T17:24:18.263Z,8.40
2023-02-11T17:26:46.198Z,8.30
2023-02-11T17:29:20.116Z,8.30
2023-02-11T17:31:47.298Z,8.30
2023-02-11T17:34:14.552Z,8.30
2023-02-11T17:36:41.477Z,8.30
2023-02-11T17:39:09.160Z,8.30
2023-02-11T17:41:39.727Z,8.30
2023-02-11T17:44:07.716Z,8.30
2023-02-11T17:46:35.440Z,8.30
2023-02-11T17:49:02.982Z,8.30
2023-02-11T17:51:31.401Z,8.20
2023-02-11T17:54:00.949Z,8.20
2023-02-11T17:56:28.012Z,8.20
2023-02-11T17:58:54.923Z,8.20
2023-02-11T18:01:21.826Z,8.20
2023-02-11T18:03:48.703Z,8.20
2023-02-11T18:06:15.511Z,8.10
2023-02-11T18:08:43.128Z,8.10
2023-02-11T18:11:12.645Z,8.10
2023-02-11T18:13:39.390Z,8.10
2023-02-11T18:16:08.634Z,8.00
2023-02-11T18:18:36.346Z,8.00
2023-02-11T18:21:08.613Z,8.00
2023-02-11T18:23:36.066Z,8.00
2023-02-11T18:26:03.173Z,8.00
2023-02-11T18:28:30.097Z,8.00
2023-02-11T18:30:59.221Z,8.00
2023-02-11T18:33:27.076Z,8.00
2023-02-11T18:35:54.136Z,7.90
2023-02-11T18:38:22.344Z,7.90
2023-02-11T18:40:50.537Z,7.90
2023-02-11T18:43:18.589Z,7.90
2023-02-11T18:45:47.293Z,8.00
2023-02-11T18:48:14.918Z,8.00
2023-02-11T18:50:44.492Z,7.90
2023-02-11T18:53:12.566Z,7.90
2023-02-11T18:55:44.373Z,7.90
2023-02-11T18:58:12.097Z,7.90
2023-02-11T19:00:42.695Z,7.80
2023-02-11T19:03:09.602Z,7.80
2023-02-11T19:05:48.272Z,7.80
2023-02-11T19:08:15.955Z,7.80
2023-02-11T19:10:44.939Z,7.80
2023-02-11T19:13:12.448Z,7.70
2023-02-11T19:15:46.287Z,7.70
2023-02-11T19:18:14.514Z,7.70
2023-02-11T19:20:43.405Z,7.60
2023-02-11T19:23:10.908Z,7.70
2023-02-11T19:25:44.396Z,7.70
2023-02-11T19:28:11.538Z,7.70
2023-02-11T19:30:38.637Z,7.70
2023-02-11T19:33:06.373Z,7.70
2023-02-11T19:35:37.977Z,7.60
2023-02-11T19:38:05.314Z,7.60
2023-02-11T19:40:32.652Z,7.60
2023-02-11T19:42:59.665Z,7.60
2023-02-11T19:45:27.032Z,7.60
2023-02-11T19:47:57.616Z,7.60
2023-02-11T19:50:24.824Z,7.60
2023-02-11T19:52:51.736Z,7.60
2023-02-11T19:55:18.695Z,7.60
2023-02-11T19:57:45.569Z,7.50
2023-02-11T20:00:12.977Z,7.50
2023-02-11T20:02:40.485Z,7.50
2023-02-11T20:05:07.804Z,7.50
2023-02-11T20:07:35.143Z,7.50
2023-02-11T20:10:02.115Z,7.40
2023-02-11T20:12:29.097Z,7.50
2023-02-11T20:14:55.962Z,7.40
2023-02-11T20:17:22.864Z,7.40
2023-02-11T20:19:49.840Z,7.40
2023-02-11T20:22:16.700Z,7.40
2023-02-11T20:24:43.562Z,7.30
2023-02-11T20:27:11.528Z,7.30
2023-02-11T20:29:39.562Z,7.30
2023-02-11T20:32:07.574Z,7.20
2023-02-11T20:34:34.599Z,7.10
2023-02-11T20:37:02.979Z,7.10
2023-02-11T20:39:30.116Z,7.10
2023-02-11T20:41:58.145Z,7.00
2023-02-11T20:44:25.094Z,6.90
2023-02-11T20:46:54.359Z,6.90
2023-02-11T20:49:22.435Z,6.80
2023-02-11T20:51:49.594Z,6.70
2023-02-11T20:54:19.947Z,6.60
2023-02-11T20:56:48.525Z,6.60
2023-02-11T20:59:16.736Z,6.60
2023-02-11T21:01:46.600Z,6.60
2023-02-11T21:04:17.185Z,6.50
2023-02-11T21:06:48.289Z,6.60
2023-02-11T21:09:17.411Z,6.50
2023-02-11T21:11:44.269Z,6.50
2023-02-11T21:14:12.407Z,6.50
2023-02-11T21:16:39.925Z,6.50
2023-02-11T21:19:07.277Z,6.50
2023-02-11T21:21:36.977Z,6.40
2023-02-11T21:24:05.436Z,6.40
2023-02-11T21:26:32.642Z,6.40
2023-02-11T21:28:59.567Z,6.40
2023-02-11T21:31:29.644Z,6.40
2023-02-11T21:33:56.824Z,6.30
2023-02-11T21:36:24.110Z,6.30
2023-02-11T21:38:51.168Z,6.30
2023-02-11T21:41:22.396Z,6.30
2023-02-11T21:43:50.057Z,6.30
2023-02-11T21:46:17.971Z,6.30
2023-02-11T21:48:44.986Z,6.30
2023-02-11T21:51:15.118Z,6.30
2023-02-11T21:53:42.050Z,6.40
2023-02-11T21:56:18.045Z,6.30
2023-02-11T21:58:46.022Z,6.40
2023-02-11T22:01:15.507Z,6.40
2023-02-11T22:03:43.304Z,6.40
2023-02-11T22:06:12.860Z,6.50
2023-02-11T22:08:39.719Z,6.40
2023-02-11T22:11:08.965Z,6.50
2023-02-11T22:13:36.507Z,6.50
2023-02-11T22:16:06.594Z,6.50
2023-02-11T22:18:33.810Z,6.50
2023-02-11T22:21:02.624Z,6.50
2023-02-11T22:23:30.069Z,6.50
2023-02-11T22:25:58.348Z,6.50
2023-02-11T22:28:26.147Z,6.50
2023-02-11T22:30:55.367Z,6.50
2023-02-11T22:33:26.856Z,6.50
2023-02-11T22:36:05.037Z,6.50
2023-02-11T22:38:33.012Z,6.50
2023-02-11T22:41:04.586Z,6.60
2023-02-11T22:43:31.554Z,6.50
2023-02-11T22:46:07.019Z,6.50
2023-02-11T22:48:35.304Z,6.50
2023-02-11T22:51:06.428Z,6.50
2023-02-11T22:53:33.445Z,6.50
2023-02-11T22:56:09.486Z,6.50
2023-02-11T22:58:36.798Z,6.50
2023-02-11T23:01:05.368Z,6.50
2023-02-11T23:03:33.763Z,6.50
2023-02-11T23:06:01.009Z,6.50
2023-02-11T23:08:29.246Z,6.50
2023-02-11T23:10:56.249Z,6.50
2023-02-11T23:13:23.068Z,6.50
2023-02-11T23:15:49.961Z,6.50
2023-02-11T23:18:16.874Z,6.50
2023-02-11T23:20:44.407Z,6.50
2023-02-11T23:23:11.760Z,6.50
2023-02-11T23:25:43.532Z,6.50
2023-02-11T23:28:12.079Z,6.50
2023-02-11T23:30:39.453Z,6.50
2023-02-11T23:33:06.266Z,6.60
2023-02-11T23:35:33.273Z,6.60
2023-02-11T23:38:00.145Z,6.60
2023-02-11T23:40:27.105Z,6.60
2023-02-11T23:42:53.971Z,6.50
2023-02-11T23:45:20.846Z,6.50
2023-02-11T23:47:47.695Z,6.50
2023-02-11T23:50:14.686Z,6.50
2023-02-11T23:52:41.744Z,6.50
2023-02-11T23:55:08.906Z,6.50
2023-02-11T23:57:36.049Z,6.50
